sensor_id;sensor_type;location;lat;lon;timestamp;P1;durP1;ratioP1;P2;durP2;ratioP2
15246;SDS011;7726;48.820;9.248;2023-04-03T00:00:50;3.30;;;2.27;;
15246;SDS011;7726;48.820;9.248;2023-04-03T00:03:18;2.00;;;1.90;;
15246;SDS011;7726;48.820;9.248;2023-04-03T00:05:45;2.40;;;2.20;;
15246;SDS011;7726;48.820;9.248;2023-04-03T00:08:13;2.70;;;2.10;;
15246;SDS011;7726;48.820;9.248;2023-04-03T00:10:41;2.37;;;2.17;;
15246;SDS011;7726;48.820;9.248;2023-04-03T00:13:09;2.43;;;2.17;;
15246;SDS011;7726;48.820;9.248;2023-04-03T00:15:36;2.40;;;2.00;;
15246;SDS011;7726;48.820;9.248;2023-04-03T00:18:03;2.53;;;2.33;;
15246;SDS011;7726;48.820;9.248;2023-04-03T00:20:30;2.40;;;2.20;;
15246;SDS011;7726;48.820;9.248;2023-04-03T00:22:58;3.23;;;2.00;;
15246;SDS011;7726;48.820;9.248;2023-04-03T00:25:25;2.77;;;2.13;;
15246;SDS011;7726;48.820;9.248;2023-04-03T00:27:53;5.53;;;2.30;;
15246;SDS011;7726;48.820;9.248;2023-04-03T00:30:22;2.87;;;2.10;;
15246;SDS011;7726;48.820;9.248;2023-04-03T00:32:50;2.63;;;2.03;;
15246;SDS011;7726;48.820;9.248;2023-04-03T00:35:17;3.13;;;2.57;;
15246;SDS011;7726;48.820;9.248;2023-04-03T00:37:44;2.73;;;2.30;;
15246;SDS011;7726;48.820;9.248;2023-04-03T00:40:13;2.10;;;2.00;;
15246;SDS011;7726;48.820;9.248;2023-04-03T00:42:42;2.83;;;2.20;;
15246;SDS011;7726;48.820;9.248;2023-04-03T00:45:25;2.77;;;2.00;;
15246;SDS011;7726;48.820;9.248;2023-04-03T00:47:52;3.57;;;2.30;;
15246;SDS011;7726;48.820;9.248;2023-04-03T00:50:20;2.77;;;2.20;;
15246;SDS011;7726;48.820;9.248;2023-04-03T00:52:47;3.20;;;2.17;;
15246;SDS011;7726;48.820;9.248;2023-04-03T00:55:14;2.30;;;2.10;;
15246;SDS011;7726;48.820;9.248;2023-04-03T00:57:42;2.53;;;2.13;;
15246;SDS011;7726;48.820;9.248;2023-04-03T01:00:10;2.27;;;2.07;;
15246;SDS011;7726;48.820;9.248;2023-04-03T01:02:39;2.30;;;2.10;;
15246;SDS011;7726;48.820;9.248;2023-04-03T01:05:07;2.50;;;2.07;;
15246;SDS011;7726;48.820;9.248;2023-04-03T01:07:34;4.77;;;1.83;;
15246;SDS011;7726;48.820;9.248;2023-04-03T01:10:03;2.40;;;2.20;;
15246;SDS011;7726;48.820;9.248;2023-04-03T01:12:32;2.37;;;2.17;;
15246;SDS011;7726;48.820;9.248;2023-04-03T01:15:00;2.30;;;2.10;;
15246;SDS011;7726;48.820;9.248;2023-04-03T01:17:29;3.00;;;2.23;;
15246;SDS011;7726;48.820;9.248;2023-04-03T01:20:03;2.93;;;2.53;;
15246;SDS011;7726;48.820;9.248;2023-04-03T01:22:39;2.43;;;2.23;;
15246;SDS011;7726;48.820;9.248;2023-04-03T01:25:09;2.53;;;2.30;;
15246;SDS011;7726;48.820;9.248;2023-04-03T01:27:36;2.57;;;2.37;;
15246;SDS011;7726;48.820;9.248;2023-04-03T01:30:04;2.73;;;2.33;;
15246;SDS011;7726;48.820;9.248;2023-04-03T01:32:33;3.83;;;2.03;;
15246;SDS011;7726;48.820;9.248;2023-04-03T01:35:00;2.63;;;2.43;;
15246;SDS011;7726;48.820;9.248;2023-04-03T01:37:27;3.33;;;2.40;;
15246;SDS011;7726;48.820;9.248;2023-04-03T01:39:54;2.33;;;2.13;;
15246;SDS011;7726;48.820;9.248;2023-04-03T01:42:21;2.30;;;2.10;;
15246;SDS011;7726;48.820;9.248;2023-04-03T01:44:48;2.50;;;2.13;;
15246;SDS011;7726;48.820;9.248;2023-04-03T01:47:15;2.93;;;2.37;;
15246;SDS011;7726;48.820;9.248;2023-04-03T01:49:44;2.57;;;2.20;;
15246;SDS011;7726;48.820;9.248;2023-04-03T01:52:11;3.13;;;2.40;;
15246;SDS011;7726;48.820;9.248;2023-04-03T01:54:38;3.37;;;2.50;;
15246;SDS011;7726;48.820;9.248;2023-04-03T01:57:05;2.73;;;2.27;;
15246;SDS011;7726;48.820;9.248;2023-04-03T01:59:32;2.33;;;2.03;;
15246;SDS011;7726;48.820;9.248;2023-04-03T02:02:00;2.57;;;2.30;;
15246;SDS011;7726;48.820;9.248;2023-04-03T02:04:27;2.83;;;2.63;;
15246;SDS011;7726;48.820;9.248;2023-04-03T02:06:55;5.13;;;2.30;;
15246;SDS011;7726;48.820;9.248;2023-04-03T02:09:22;2.60;;;2.40;;
15246;SDS011;7726;48.820;9.248;2023-04-03T02:11:51;2.37;;;2.17;;
15246;SDS011;7726;48.820;9.248;2023-04-03T02:14:18;3.10;;;2.53;;
15246;SDS011;7726;48.820;9.248;2023-04-03T02:16:46;2.83;;;2.50;;
15246;SDS011;7726;48.820;9.248;2023-04-03T02:19:14;2.40;;;2.20;;
15246;SDS011;7726;48.820;9.248;2023-04-03T02:21:41;2.80;;;2.23;;
15246;SDS011;7726;48.820;9.248;2023-04-03T02:24:09;2.50;;;2.30;;
15246;SDS011;7726;48.820;9.248;2023-04-03T02:26:36;2.50;;;2.23;;
15246;SDS011;7726;48.820;9.248;2023-04-03T02:29:04;4.73;;;2.30;;
15246;SDS011;7726;48.820;9.248;2023-04-03T02:31:31;2.43;;;2.27;;
15246;SDS011;7726;48.820;9.248;2023-04-03T02:33:58;2.50;;;2.30;;
15246;SDS011;7726;48.820;9.248;2023-04-03T02:36:25;2.40;;;2.20;;
15246;SDS011;7726;48.820;9.248;2023-04-03T02:38:52;2.40;;;2.20;;
15246;SDS011;7726;48.820;9.248;2023-04-03T02:41:21;2.37;;;2.20;;
15246;SDS011;7726;48.820;9.248;2023-04-03T02:43:50;2.43;;;2.20;;
15246;SDS011;7726;48.820;9.248;2023-04-03T02:46:17;3.67;;;2.30;;
15246;SDS011;7726;48.820;9.248;2023-04-03T02:48:44;2.50;;;2.30;;
15246;SDS011;7726;48.820;9.248;2023-04-03T02:51:12;6.10;;;2.30;;
15246;SDS011;7726;48.820;9.248;2023-04-03T02:53:39;2.57;;;1.90;;
15246;SDS011;7726;48.820;9.248;2023-04-03T02:56:06;2.67;;;2.27;;
15246;SDS011;7726;48.820;9.248;2023-04-03T02:58:34;3.37;;;2.27;;
15246;SDS011;7726;48.820;9.248;2023-04-03T03:01:02;5.07;;;2.37;;
15246;SDS011;7726;48.820;9.248;2023-04-03T03:03:29;2.23;;;2.00;;
15246;SDS011;7726;48.820;9.248;2023-04-03T03:06:02;3.17;;;2.50;;
15246;SDS011;7726;48.820;9.248;2023-04-03T03:08:30;3.10;;;2.60;;
15246;SDS011;7726;48.820;9.248;2023-04-03T03:10:57;2.87;;;2.30;;
15246;SDS011;7726;48.820;9.248;2023-04-03T03:13:25;5.57;;;2.47;;
15246;SDS011;7726;48.820;9.248;2023-04-03T03:15:53;2.40;;;1.97;;
15246;SDS011;7726;48.820;9.248;2023-04-03T03:18:21;2.03;;;1.93;;
15246;SDS011;7726;48.820;9.248;2023-04-03T03:20:50;2.40;;;2.20;;
15246;SDS011;7726;48.820;9.248;2023-04-03T03:23:17;3.27;;;2.20;;
15246;SDS011;7726;48.820;9.248;2023-04-03T03:25:44;3.20;;;2.27;;
15246;SDS011;7726;48.820;9.248;2023-04-03T03:28:12;2.43;;;1.87;;
15246;SDS011;7726;48.820;9.248;2023-04-03T03:30:39;2.93;;;2.63;;
15246;SDS011;7726;48.820;9.248;2023-04-03T03:33:08;2.40;;;2.20;;
15246;SDS011;7726;48.820;9.248;2023-04-03T03:35:35;2.53;;;2.33;;
15246;SDS011;7726;48.820;9.248;2023-04-03T03:38:02;2.43;;;2.23;;
15246;SDS011;7726;48.820;9.248;2023-04-03T03:40:30;3.60;;;2.47;;
15246;SDS011;7726;48.820;9.248;2023-04-03T03:42:57;2.60;;;2.40;;
15246;SDS011;7726;48.820;9.248;2023-04-03T03:45:24;3.13;;;2.43;;
15246;SDS011;7726;48.820;9.248;2023-04-03T03:47:51;5.13;;;2.07;;
15246;SDS011;7726;48.820;9.248;2023-04-03T03:50:20;5.67;;;2.57;;
15246;SDS011;7726;48.820;9.248;2023-04-03T03:52:47;2.90;;;2.30;;
15246;SDS011;7726;48.820;9.248;2023-04-03T03:55:14;3.30;;;2.30;;
15246;SDS011;7726;48.820;9.248;2023-04-03T03:57:42;2.73;;;2.50;;
15246;SDS011;7726;48.820;9.248;2023-04-03T04:00:09;2.50;;;2.30;;
15246;SDS011;7726;48.820;9.248;2023-04-03T04:02:37;2.20;;;2.00;;
15246;SDS011;7726;48.820;9.248;2023-04-03T04:05:04;2.07;;;1.93;;
15246;SDS011;7726;48.820;9.248;2023-04-03T04:07:33;2.20;;;2.10;;
15246;SDS011;7726;48.820;9.248;2023-04-03T04:10:00;3.13;;;2.33;;
15246;SDS011;7726;48.820;9.248;2023-04-03T04:12:27;3.17;;;2.00;;
15246;SDS011;7726;48.820;9.248;2023-04-03T04:14:54;3.20;;;2.30;;
15246;SDS011;7726;48.820;9.248;2023-04-03T04:17:21;2.40;;;1.50;;
15246;SDS011;7726;48.820;9.248;2023-04-03T04:19:48;2.83;;;1.90;;
15246;SDS011;7726;48.820;9.248;2023-04-03T04:22:15;2.13;;;1.83;;
15246;SDS011;7726;48.820;9.248;2023-04-03T04:24:44;1.90;;;1.73;;
15246;SDS011;7726;48.820;9.248;2023-04-03T04:27:11;2.60;;;2.10;;
15246;SDS011;7726;48.820;9.248;2023-04-03T04:29:38;2.27;;;2.07;;
15246;SDS011;7726;48.820;9.248;2023-04-03T04:32:05;2.00;;;1.80;;
15246;SDS011;7726;48.820;9.248;2023-04-03T04:34:33;2.10;;;1.90;;
15246;SDS011;7726;48.820;9.248;2023-04-03T04:37:01;3.10;;;2.10;;
15246;SDS011;7726;48.820;9.248;2023-04-03T04:39:28;1.67;;;1.57;;
15246;SDS011;7726;48.820;9.248;2023-04-03T04:41:56;2.07;;;1.93;;
15246;SDS011;7726;48.820;9.248;2023-04-03T04:44:23;3.70;;;1.93;;
15246;SDS011;7726;48.820;9.248;2023-04-03T04:49:33;2.10;;;1.90;;
15246;SDS011;7726;48.820;9.248;2023-04-03T04:52:00;2.40;;;1.97;;
15246;SDS011;7726;48.820;9.248;2023-04-03T04:54:27;2.63;;;2.00;;
15246;SDS011;7726;48.820;9.248;2023-04-03T04:56:54;2.20;;;2.00;;
15246;SDS011;7726;48.820;9.248;2023-04-03T04:59:22;2.50;;;2.00;;
15246;SDS011;7726;48.820;9.248;2023-04-03T05:01:50;2.87;;;2.13;;
15246;SDS011;7726;48.820;9.248;2023-04-03T05:04:17;2.27;;;1.90;;
15246;SDS011;7726;48.820;9.248;2023-04-03T05:06:44;2.40;;;2.10;;
15246;SDS011;7726;48.820;9.248;2023-04-03T05:09:11;2.30;;;2.10;;
15246;SDS011;7726;48.820;9.248;2023-04-03T05:11:38;4.33;;;1.77;;
15246;SDS011;7726;48.820;9.248;2023-04-03T05:14:05;2.23;;;2.03;;
15246;SDS011;7726;48.820;9.248;2023-04-03T05:16:34;2.43;;;1.93;;
15246;SDS011;7726;48.820;9.248;2023-04-03T05:19:01;2.20;;;2.00;;
15246;SDS011;7726;48.820;9.248;2023-04-03T05:21:28;2.30;;;2.10;;
15246;SDS011;7726;48.820;9.248;2023-04-03T05:23:57;3.80;;;2.40;;
15246;SDS011;7726;48.820;9.248;2023-04-03T05:26:27;2.60;;;2.40;;
15246;SDS011;7726;48.820;9.248;2023-04-03T05:28:54;2.13;;;1.50;;
15246;SDS011;7726;48.820;9.248;2023-04-03T05:31:21;1.30;;;1.20;;
15246;SDS011;7726;48.820;9.248;2023-04-03T05:33:50;2.03;;;1.83;;
15246;SDS011;7726;48.820;9.248;2023-04-03T05:36:17;1.50;;;1.30;;
15246;SDS011;7726;48.820;9.248;2023-04-03T05:38:44;1.63;;;1.23;;
15246;SDS011;7726;48.820;9.248;2023-04-03T05:41:12;1.67;;;1.27;;
15246;SDS011;7726;48.820;9.248;2023-04-03T05:43:39;2.70;;;1.77;;
15246;SDS011;7726;48.820;9.248;2023-04-03T05:46:08;4.50;;;1.57;;
15246;SDS011;7726;48.820;9.248;2023-04-03T05:48:36;6.07;;;1.77;;
15246;SDS011;7726;48.820;9.248;2023-04-03T05:51:05;6.83;;;1.93;;
15246;SDS011;7726;48.820;9.248;2023-04-03T05:53:33;1.57;;;1.47;;
15246;SDS011;7726;48.820;9.248;2023-04-03T05:56:02;2.60;;;2.20;;
15246;SDS011;7726;48.820;9.248;2023-04-03T05:58:29;3.77;;;1.60;;
15246;SDS011;7726;48.820;9.248;2023-04-03T06:00:56;3.33;;;1.87;;
15246;SDS011;7726;48.820;9.248;2023-04-03T06:03:25;4.80;;;2.10;;
15246;SDS011;7726;48.820;9.248;2023-04-03T06:05:52;2.60;;;1.77;;
15246;SDS011;7726;48.820;9.248;2023-04-03T06:08:21;2.63;;;1.87;;
15246;SDS011;7726;48.820;9.248;2023-04-03T06:10:48;2.07;;;1.83;;
15246;SDS011;7726;48.820;9.248;2023-04-03T06:13:16;5.33;;;2.10;;
15246;SDS011;7726;48.820;9.248;2023-04-03T06:15:43;2.27;;;2.07;;
15246;SDS011;7726;48.820;9.248;2023-04-03T06:18:11;1.73;;;1.63;;
15246;SDS011;7726;48.820;9.248;2023-04-03T06:20:41;1.97;;;1.67;;
15246;SDS011;7726;48.820;9.248;2023-04-03T06:23:08;3.23;;;1.63;;
15246;SDS011;7726;48.820;9.248;2023-04-03T06:25:36;1.70;;;1.60;;
15246;SDS011;7726;48.820;9.248;2023-04-03T06:28:03;2.10;;;2.00;;
15246;SDS011;7726;48.820;9.248;2023-04-03T06:30:33;1.80;;;1.47;;
15246;SDS011;7726;48.820;9.248;2023-04-03T06:33:00;2.10;;;1.80;;
15246;SDS011;7726;48.820;9.248;2023-04-03T06:35:30;2.40;;;1.40;;
15246;SDS011;7726;48.820;9.248;2023-04-03T06:37:59;3.10;;;1.87;;
15246;SDS011;7726;48.820;9.248;2023-04-03T06:40:29;1.83;;;1.53;;
15246;SDS011;7726;48.820;9.248;2023-04-03T06:42:58;1.60;;;1.50;;
15246;SDS011;7726;48.820;9.248;2023-04-03T06:45:25;1.50;;;1.40;;
15246;SDS011;7726;48.820;9.248;2023-04-03T06:47:55;2.00;;;1.63;;
15246;SDS011;7726;48.820;9.248;2023-04-03T06:50:22;1.90;;;1.80;;
15246;SDS011;7726;48.820;9.248;2023-04-03T06:52:49;1.47;;;1.37;;
15246;SDS011;7726;48.820;9.248;2023-04-03T06:55:17;3.03;;;1.73;;
15246;SDS011;7726;48.820;9.248;2023-04-03T06:57:46;2.07;;;1.87;;
15246;SDS011;7726;48.820;9.248;2023-04-03T07:00:16;1.77;;;1.63;;
15246;SDS011;7726;48.820;9.248;2023-04-03T07:02:43;2.70;;;1.73;;
15246;SDS011;7726;48.820;9.248;2023-04-03T07:05:11;2.00;;;1.90;;
15246;SDS011;7726;48.820;9.248;2023-04-03T07:07:39;3.23;;;2.00;;
15246;SDS011;7726;48.820;9.248;2023-04-03T07:10:06;2.10;;;1.80;;
15246;SDS011;7726;48.820;9.248;2023-04-03T07:12:43;4.00;;;2.20;;
15246;SDS011;7726;48.820;9.248;2023-04-03T07:15:12;1.60;;;1.50;;
15246;SDS011;7726;48.820;9.248;2023-04-03T07:17:41;4.17;;;2.30;;
15246;SDS011;7726;48.820;9.248;2023-04-03T07:20:14;3.00;;;2.50;;
15246;SDS011;7726;48.820;9.248;2023-04-03T07:22:41;4.37;;;2.10;;
15246;SDS011;7726;48.820;9.248;2023-04-03T07:25:11;3.40;;;1.60;;
15246;SDS011;7726;48.820;9.248;2023-04-03T07:27:39;1.80;;;1.70;;
15246;SDS011;7726;48.820;9.248;2023-04-03T07:30:08;2.63;;;1.87;;
15246;SDS011;7726;48.820;9.248;2023-04-03T07:32:35;2.53;;;1.67;;
15246;SDS011;7726;48.820;9.248;2023-04-03T07:35:04;5.23;;;1.90;;
15246;SDS011;7726;48.820;9.248;2023-04-03T07:37:31;2.27;;;2.07;;
15246;SDS011;7726;48.820;9.248;2023-04-03T07:39:58;2.50;;;1.50;;
15246;SDS011;7726;48.820;9.248;2023-04-03T07:42:28;2.97;;;1.97;;
15246;SDS011;7726;48.820;9.248;2023-04-03T07:44:55;1.43;;;1.30;;
15246;SDS011;7726;48.820;9.248;2023-04-03T07:47:22;2.23;;;1.53;;
15246;SDS011;7726;48.820;9.248;2023-04-03T07:49:50;1.40;;;1.30;;
15246;SDS011;7726;48.820;9.248;2023-04-03T07:52:18;4.03;;;1.57;;
15246;SDS011;7726;48.820;9.248;2023-04-03T07:54:45;2.83;;;1.80;;
15246;SDS011;7726;48.820;9.248;2023-04-03T07:57:13;2.17;;;1.67;;
15246;SDS011;7726;48.820;9.248;2023-04-03T07:59:40;1.57;;;1.40;;
15246;SDS011;7726;48.820;9.248;2023-04-03T08:02:08;1.60;;;1.50;;
15246;SDS011;7726;48.820;9.248;2023-04-03T08:04:36;2.93;;;2.00;;
15246;SDS011;7726;48.820;9.248;2023-04-03T08:07:03;3.60;;;1.00;;
15246;SDS011;7726;48.820;9.248;2023-04-03T08:09:31;4.30;;;1.73;;
15246;SDS011;7726;48.820;9.248;2023-04-03T08:11:59;2.90;;;1.20;;
15246;SDS011;7726;48.820;9.248;2023-04-03T08:14:26;4.77;;;2.37;;
15246;SDS011;7726;48.820;9.248;2023-04-03T08:16:53;3.20;;;1.80;;
15246;SDS011;7726;48.820;9.248;2023-04-03T08:19:20;2.97;;;2.17;;
15246;SDS011;7726;48.820;9.248;2023-04-03T08:21:48;3.67;;;1.67;;
15246;SDS011;7726;48.820;9.248;2023-04-03T08:24:15;2.10;;;1.70;;
15246;SDS011;7726;48.820;9.248;2023-04-03T08:26:43;1.30;;;1.20;;
15246;SDS011;7726;48.820;9.248;2023-04-03T08:29:11;3.37;;;1.53;;
15246;SDS011;7726;48.820;9.248;2023-04-03T08:31:38;3.43;;;1.70;;
15246;SDS011;7726;48.820;9.248;2023-04-03T08:34:05;2.30;;;2.13;;
15246;SDS011;7726;48.820;9.248;2023-04-03T08:36:33;2.17;;;1.53;;
15246;SDS011;7726;48.820;9.248;2023-04-03T08:39:00;3.63;;;1.60;;
15246;SDS011;7726;48.820;9.248;2023-04-03T08:41:29;1.27;;;1.27;;
15246;SDS011;7726;48.820;9.248;2023-04-03T08:44:07;1.70;;;1.60;;
15246;SDS011;7726;48.820;9.248;2023-04-03T08:46:45;5.00;;;1.60;;
15246;SDS011;7726;48.820;9.248;2023-04-03T08:49:17;2.63;;;1.87;;
15246;SDS011;7726;48.820;9.248;2023-04-03T08:51:48;3.50;;;2.13;;
15246;SDS011;7726;48.820;9.248;2023-04-03T08:54:18;1.70;;;1.57;;
15246;SDS011;7726;48.820;9.248;2023-04-03T08:56:47;5.20;;;1.40;;
15246;SDS011;7726;48.820;9.248;2023-04-03T08:59:17;4.47;;;2.13;;
15246;SDS011;7726;48.820;9.248;2023-04-03T09:01:48;2.60;;;1.67;;
15246;SDS011;7726;48.820;9.248;2023-04-03T09:04:16;3.97;;;2.00;;
15246;SDS011;7726;48.820;9.248;2023-04-03T09:06:44;2.40;;;1.93;;
15246;SDS011;7726;48.820;9.248;2023-04-03T09:09:14;2.97;;;1.30;;
15246;SDS011;7726;48.820;9.248;2023-04-03T09:11:45;2.40;;;1.60;;
15246;SDS011;7726;48.820;9.248;2023-04-03T09:14:15;4.17;;;1.53;;
15246;SDS011;7726;48.820;9.248;2023-04-03T09:16:47;2.40;;;1.90;;
15246;SDS011;7726;48.820;9.248;2023-04-03T09:19:18;2.27;;;1.73;;
15246;SDS011;7726;48.820;9.248;2023-04-03T09:21:48;1.53;;;0.97;;
15246;SDS011;7726;48.820;9.248;2023-04-03T09:24:16;2.80;;;1.20;;
15246;SDS011;7726;48.820;9.248;2023-04-03T09:26:44;1.70;;;1.60;;
15246;SDS011;7726;48.820;9.248;2023-04-03T09:29:14;2.97;;;1.77;;
15246;SDS011;7726;48.820;9.248;2023-04-03T09:31:43;1.43;;;1.30;;
15246;SDS011;7726;48.820;9.248;2023-04-03T09:34:15;1.97;;;1.40;;
15246;SDS011;7726;48.820;9.248;2023-04-03T09:36:47;2.80;;;1.23;;
15246;SDS011;7726;48.820;9.248;2023-04-03T09:39:15;1.33;;;1.27;;
15246;SDS011;7726;48.820;9.248;2023-04-03T09:41:43;1.40;;;1.20;;
15246;SDS011;7726;48.820;9.248;2023-04-03T09:44:22;1.67;;;1.57;;
15246;SDS011;7726;48.820;9.248;2023-04-03T09:46:49;1.77;;;1.67;;
15246;SDS011;7726;48.820;9.248;2023-04-03T09:49:18;1.47;;;1.13;;
15246;SDS011;7726;48.820;9.248;2023-04-03T09:51:46;2.27;;;2.00;;
15246;SDS011;7726;48.820;9.248;2023-04-03T09:54:24;2.30;;;1.60;;
15246;SDS011;7726;48.820;9.248;2023-04-03T09:56:52;1.07;;;1.07;;
15246;SDS011;7726;48.820;9.248;2023-04-03T09:59:20;1.67;;;1.57;;
15246;SDS011;7726;48.820;9.248;2023-04-03T10:01:56;1.83;;;1.53;;
15246;SDS011;7726;48.820;9.248;2023-04-03T10:04:25;1.47;;;1.33;;
15246;SDS011;7726;48.820;9.248;2023-04-03T10:07:03;2.33;;;1.87;;
15246;SDS011;7726;48.820;9.248;2023-04-03T10:09:30;3.37;;;1.50;;
15246;SDS011;7726;48.820;9.248;2023-04-03T10:11:59;1.90;;;1.30;;
15246;SDS011;7726;48.820;9.248;2023-04-03T10:14:27;2.37;;;1.80;;
15246;SDS011;7726;48.820;9.248;2023-04-03T10:16:56;4.27;;;1.90;;
15246;SDS011;7726;48.820;9.248;2023-04-03T10:19:34;3.30;;;2.00;;
15246;SDS011;7726;48.820;9.248;2023-04-03T10:22:02;2.37;;;1.70;;
15246;SDS011;7726;48.820;9.248;2023-04-03T10:24:33;2.00;;;1.87;;
15246;SDS011;7726;48.820;9.248;2023-04-03T10:27:03;1.77;;;1.20;;
15246;SDS011;7726;48.820;9.248;2023-04-03T10:29:36;3.93;;;1.70;;
15246;SDS011;7726;48.820;9.248;2023-04-03T10:32:10;1.50;;;1.40;;
15246;SDS011;7726;48.820;9.248;2023-04-03T10:34:43;1.10;;;1.00;;
15246;SDS011;7726;48.820;9.248;2023-04-03T10:37:12;3.17;;;1.90;;
15246;SDS011;7726;48.820;9.248;2023-04-03T10:39:43;3.50;;;1.60;;
15246;SDS011;7726;48.820;9.248;2023-04-03T10:42:15;1.87;;;1.53;;
15246;SDS011;7726;48.820;9.248;2023-04-03T10:44:52;1.47;;;1.33;;
15246;SDS011;7726;48.820;9.248;2023-04-03T10:47:24;1.90;;;1.40;;
15246;SDS011;7726;48.820;9.248;2023-04-03T10:49:59;1.47;;;1.20;;
15246;SDS011;7726;48.820;9.248;2023-04-03T10:52:30;1.63;;;1.50;;
15246;SDS011;7726;48.820;9.248;2023-04-03T10:55:02;1.20;;;1.13;;
15246;SDS011;7726;48.820;9.248;2023-04-03T10:57:34;1.77;;;1.27;;
15246;SDS011;7726;48.820;9.248;2023-04-03T11:00:03;0.90;;;0.90;;
15246;SDS011;7726;48.820;9.248;2023-04-03T11:02:35;3.17;;;1.60;;
15246;SDS011;7726;48.820;9.248;2023-04-03T11:05:06;4.30;;;1.40;;
15246;SDS011;7726;48.820;9.248;2023-04-03T11:07:37;1.20;;;1.10;;
15246;SDS011;7726;48.820;9.248;2023-04-03T11:10:05;3.00;;;1.40;;
15246;SDS011;7726;48.820;9.248;2023-04-03T11:12:41;1.97;;;1.00;;
15246;SDS011;7726;48.820;9.248;2023-04-03T11:15:11;3.23;;;1.30;;
15246;SDS011;7726;48.820;9.248;2023-04-03T11:17:41;2.40;;;1.13;;
15246;SDS011;7726;48.820;9.248;2023-04-03T11:20:14;1.57;;;1.27;;
15246;SDS011;7726;48.820;9.248;2023-04-03T11:22:44;0.90;;;0.90;;
15246;SDS011;7726;48.820;9.248;2023-04-03T11:25:14;1.73;;;0.93;;
15246;SDS011;7726;48.820;9.248;2023-04-03T11:27:45;1.73;;;1.30;;
15246;SDS011;7726;48.820;9.248;2023-04-03T11:30:17;2.47;;;1.20;;
15246;SDS011;7726;48.820;9.248;2023-04-03T11:32:57;2.33;;;1.47;;
15246;SDS011;7726;48.820;9.248;2023-04-03T11:35:28;3.23;;;1.50;;
15246;SDS011;7726;48.820;9.248;2023-04-03T11:37:56;0.90;;;0.90;;
15246;SDS011;7726;48.820;9.248;2023-04-03T11:40:25;1.40;;;1.30;;
15246;SDS011;7726;48.820;9.248;2023-04-03T11:42:53;1.70;;;1.60;;
15246;SDS011;7726;48.820;9.248;2023-04-03T11:45:27;2.63;;;1.90;;
15246;SDS011;7726;48.820;9.248;2023-04-03T11:47:56;2.77;;;1.20;;
15246;SDS011;7726;48.820;9.248;2023-04-03T11:50:32;1.30;;;1.10;;
15246;SDS011;7726;48.820;9.248;2023-04-03T11:55:59;2.03;;;1.30;;
15246;SDS011;7726;48.820;9.248;2023-04-03T11:58:26;1.17;;;1.07;;
15246;SDS011;7726;48.820;9.248;2023-04-03T12:00:55;1.73;;;1.63;;
15246;SDS011;7726;48.820;9.248;2023-04-03T12:09:27;2.07;;;1.10;;
15246;SDS011;7726;48.820;9.248;2023-04-03T12:11:55;2.07;;;1.57;;
15246;SDS011;7726;48.820;9.248;2023-04-03T12:14:23;1.20;;;1.10;;
15246;SDS011;7726;48.820;9.248;2023-04-03T12:16:52;1.17;;;1.10;;
15246;SDS011;7726;48.820;9.248;2023-04-03T12:19:33;2.80;;;1.30;;
15246;SDS011;7726;48.820;9.248;2023-04-03T12:22:07;2.27;;;1.30;;
15246;SDS011;7726;48.820;9.248;2023-04-03T12:24:37;0.90;;;0.90;;
15246;SDS011;7726;48.820;9.248;2023-04-03T12:29:49;1.53;;;1.27;;
15246;SDS011;7726;48.820;9.248;2023-04-03T12:32:22;2.20;;;1.30;;
15246;SDS011;7726;48.820;9.248;2023-04-03T12:37:39;2.33;;;1.20;;
15246;SDS011;7726;48.820;9.248;2023-04-03T12:40:10;2.83;;;1.07;;
15246;SDS011;7726;48.820;9.248;2023-04-03T12:42:46;1.90;;;0.90;;
15246;SDS011;7726;48.820;9.248;2023-04-03T12:45:21;0.73;;;0.73;;
15246;SDS011;7726;48.820;9.248;2023-04-03T12:47:49;1.50;;;1.40;;
15246;SDS011;7726;48.820;9.248;2023-04-03T12:50:17;3.20;;;1.60;;
15246;SDS011;7726;48.820;9.248;2023-04-03T12:52:47;2.47;;;1.70;;
15246;SDS011;7726;48.820;9.248;2023-04-03T12:55:18;1.70;;;1.20;;
15246;SDS011;7726;48.820;9.248;2023-04-03T12:57:46;2.27;;;1.13;;
15246;SDS011;7726;48.820;9.248;2023-04-03T13:00:27;0.97;;;0.97;;
15246;SDS011;7726;48.820;9.248;2023-04-03T13:02:54;3.67;;;1.47;;
15246;SDS011;7726;48.820;9.248;2023-04-03T13:05:22;2.53;;;1.57;;
15246;SDS011;7726;48.820;9.248;2023-04-03T13:07:50;1.27;;;1.17;;
15246;SDS011;7726;48.820;9.248;2023-04-03T13:10:21;1.70;;;1.40;;
15246;SDS011;7726;48.820;9.248;2023-04-03T13:12:49;2.50;;;1.03;;
15246;SDS011;7726;48.820;9.248;2023-04-03T13:15:18;1.50;;;1.40;;
15246;SDS011;7726;48.820;9.248;2023-04-03T13:17:45;1.13;;;1.10;;
15246;SDS011;7726;48.820;9.248;2023-04-03T13:20:17;3.17;;;1.27;;
15246;SDS011;7726;48.820;9.248;2023-04-03T13:22:47;2.10;;;1.43;;
15246;SDS011;7726;48.820;9.248;2023-04-03T13:25:15;2.40;;;1.30;;
15246;SDS011;7726;48.820;9.248;2023-04-03T13:27:44;2.17;;;1.43;;
15246;SDS011;7726;48.820;9.248;2023-04-03T13:30:25;1.20;;;1.10;;
15246;SDS011;7726;48.820;9.248;2023-04-03T13:32:53;1.27;;;1.13;;
15246;SDS011;7726;48.820;9.248;2023-04-03T13:38:20;3.07;;;1.60;;
15246;SDS011;7726;48.820;9.248;2023-04-03T13:40:48;1.47;;;1.23;;
15246;SDS011;7726;48.820;9.248;2023-04-03T13:43:21;2.60;;;1.80;;
15246;SDS011;7726;48.820;9.248;2023-04-03T13:45:58;2.30;;;1.67;;
15246;SDS011;7726;48.820;9.248;2023-04-03T13:48:26;1.50;;;1.40;;
15246;SDS011;7726;48.820;9.248;2023-04-03T13:50:55;4.03;;;1.40;;
15246;SDS011;7726;48.820;9.248;2023-04-03T13:53:23;2.10;;;1.07;;
15246;SDS011;7726;48.820;9.248;2023-04-03T13:55:58;2.20;;;1.20;;
15246;SDS011;7726;48.820;9.248;2023-04-03T13:58:28;1.93;;;1.50;;
15246;SDS011;7726;48.820;9.248;2023-04-03T14:00:55;1.53;;;1.43;;
15246;SDS011;7726;48.820;9.248;2023-04-03T14:03:24;4.07;;;2.10;;
15246;SDS011;7726;48.820;9.248;2023-04-03T14:05:52;1.47;;;1.10;;
15246;SDS011;7726;48.820;9.248;2023-04-03T14:08:19;3.13;;;1.80;;
15246;SDS011;7726;48.820;9.248;2023-04-03T14:10:47;1.50;;;1.40;;
15246;SDS011;7726;48.820;9.248;2023-04-03T14:13:15;1.90;;;1.43;;
15246;SDS011;7726;48.820;9.248;2023-04-03T14:15:44;2.27;;;1.43;;
15246;SDS011;7726;48.820;9.248;2023-04-03T14:18:13;2.37;;;1.63;;
15246;SDS011;7726;48.820;9.248;2023-04-03T14:20:41;2.07;;;1.67;;
15246;SDS011;7726;48.820;9.248;2023-04-03T14:23:09;1.97;;;1.77;;
15246;SDS011;7726;48.820;9.248;2023-04-03T14:25:36;2.37;;;1.70;;
15246;SDS011;7726;48.820;9.248;2023-04-03T14:28:06;2.03;;;1.63;;
15246;SDS011;7726;48.820;9.248;2023-04-03T14:30:39;3.80;;;1.40;;
15246;SDS011;7726;48.820;9.248;2023-04-03T14:33:09;1.97;;;1.50;;
15246;SDS011;7726;48.820;9.248;2023-04-03T14:35:37;1.43;;;1.33;;
15246;SDS011;7726;48.820;9.248;2023-04-03T14:38:05;2.97;;;1.50;;
15246;SDS011;7726;48.820;9.248;2023-04-03T14:40:32;2.10;;;1.40;;
15246;SDS011;7726;48.820;9.248;2023-04-03T14:42:59;2.03;;;1.80;;
15246;SDS011;7726;48.820;9.248;2023-04-03T14:45:26;1.20;;;1.10;;
15246;SDS011;7726;48.820;9.248;2023-04-03T14:47:54;1.20;;;1.10;;
15246;SDS011;7726;48.820;9.248;2023-04-03T14:50:23;2.27;;;1.60;;
15246;SDS011;7726;48.820;9.248;2023-04-03T14:52:52;1.60;;;1.30;;
15246;SDS011;7726;48.820;9.248;2023-04-03T14:55:20;0.90;;;0.90;;
15246;SDS011;7726;48.820;9.248;2023-04-03T14:57:48;1.53;;;1.37;;
15246;SDS011;7726;48.820;9.248;2023-04-03T15:00:16;1.33;;;1.10;;
15246;SDS011;7726;48.820;9.248;2023-04-03T15:02:44;2.30;;;1.10;;
15246;SDS011;7726;48.820;9.248;2023-04-03T15:05:12;1.80;;;1.37;;
15246;SDS011;7726;48.820;9.248;2023-04-03T15:07:42;1.80;;;1.17;;
15246;SDS011;7726;48.820;9.248;2023-04-03T15:10:14;1.20;;;1.10;;
15246;SDS011;7726;48.820;9.248;2023-04-03T15:12:43;1.53;;;1.03;;
15246;SDS011;7726;48.820;9.248;2023-04-03T15:15:10;1.30;;;1.07;;
15246;SDS011;7726;48.820;9.248;2023-04-03T15:17:38;0.90;;;0.90;;
15246;SDS011;7726;48.820;9.248;2023-04-03T15:20:09;1.30;;;1.20;;
15246;SDS011;7726;48.820;9.248;2023-04-03T15:22:38;1.70;;;1.13;;
15246;SDS011;7726;48.820;9.248;2023-04-03T15:25:07;2.87;;;1.63;;
15246;SDS011;7726;48.820;9.248;2023-04-03T15:27:35;0.90;;;0.90;;
15246;SDS011;7726;48.820;9.248;2023-04-03T15:30:03;2.60;;;1.53;;